Time;durP1;ratioP1;P1;durP2;ratioP2;P2;SDS_P1;SDS_P2;PMS_P1;PMS_P2;Temp;Humidity;BMP_temperature;BMP_pressure;BME280_temperature;BME280_humidity;BME280_pressure;Samples;Min_cycle;Max_cycle;Signal;HPM_P1;HPM_P2
2023/11/04 00:00:51;;;;;;;6.80;4.07;;;;;;;17.99;59.15;98015.31;6178053;23;20529;-96
2023/11/04 00:03:19;;;;;;;14.68;4.55;;;;;;;18.01;59.28;98012.25;6176992;23;20002;-96
2023/11/04 00:05:50;;;;;;;10.13;4.75;;;;;;;17.98;60.18;98002.84;6252714;23;20014;-96
2023/11/04 00:08:19;;;;;;;12.57;4.87;;;;;;;18.16;60.25;98019.66;6177987;23;20079;-95
2023/11/04 00:10:53;;;;;;;16.38;5.20;;;;;;;18.22;60.72;98006.53;6200155;23;20000;-96
2023/11/04 00:13:22;;;;;;;11.07;4.45;;;;;;;18.06;60.84;97976.59;6200945;23;19996;-96
2023/11/04 00:15:51;;;;;;;9.88;4.47;;;;;;;18.22;60.89;98004.63;6172005;23;20078;-96
2023/11/04 00:18:19;;;;;;;8.13;4.13;;;;;;;18.17;61.18;98007.59;6172179;23;20051;-94
2023/11/04 00:20:45;;;;;;;9.98;3.95;;;;;;;18.13;61.18;98004.78;6173453;23;20000;-94
2023/11/04 00:23:16;;;;;;;8.43;3.70;;;;;;;18.10;60.55;98000.03;6196495;23;20415;-95
2023/11/04 00:25:44;;;;;;;14.63;4.50;;;;;;;18.30;60.28;98036.34;6173787;23;20032;-95
2023/11/04 00:28:10;;;;;;;8.63;3.88;;;;;;;18.32;60.70;98030.50;6196295;23;20004;-94
2023/11/04 00:30:35;;;;;;;11.60;4.47;;;;;;;18.36;60.72;98051.28;6172454;23;20000;-95
2023/11/04 00:33:01;;;;;;;9.93;3.72;;;;;;;18.26;60.82;98040.91;6172132;23;20024;-96
2023/11/04 00:35:29;;;;;;;9.48;3.75;;;;;;;18.28;60.51;98035.91;6172706;23;20035;-96
2023/11/04 00:37:54;;;;;;;14.45;3.78;;;;;;;18.34;60.73;98050.84;6173335;23;20000;-96
2023/11/04 00:40:24;;;;;;;10.07;3.63;;;;;;;18.41;60.77;98054.84;6172595;23;20019;-96
2023/11/04 00:42:50;;;;;;;8.02;3.35;;;;;;;18.35;61.19;98040.72;6175417;23;20450;-96
2023/11/04 00:45:16;;;;;;;9.82;3.55;;;;;;;18.37;61.07;98046.63;6172550;23;20070;-95
2023/11/04 00:47:42;;;;;;;15.45;3.40;;;;;;;18.45;62.04;98048.38;6173259;23;19996;-95
2023/11/04 00:50:18;;;;;;;;;;;;;;;;;;;;;
2023/11/04 00:52:44;;;;;;;13.57;4.07;;;;;;;18.35;65.11;97948.06;6201641;23;20083;-95
2023/11/04 00:55:10;;;;;;;9.98;4.00;;;;;;;18.40;64.79;97953.22;6198127;23;20031;-95
2023/11/04 00:57:38;;;;;;;10.20;3.75;;;;;;;18.34;65.75;97950.00;6197122;23;20103;-95
2023/11/04 01:00:05;;;;;;;15.15;4.40;;;;;;;18.53;67.36;97994.78;6197305;23;20339;-94
2023/11/04 01:02:33;;;;;;;10.73;3.88;;;;;;;18.61;67.50;97993.03;6172575;23;20008;-96
2023/11/04 01:05:00;;;;;;;13.00;3.85;;;;;;;18.52;67.97;97950.41;6197043;23;20011;-93
2023/11/04 01:07:29;;;;;;;8.55;4.20;;;;;;;18.41;68.06;97937.66;6196188;23;20015;-96
2023/11/04 01:09:55;;;;;;;8.15;4.22;;;;;;;18.52;67.99;97971.41;6195356;23;20000;-95
2023/11/04 01:12:24;;;;;;;10.25;4.35;;;;;;;18.58;67.75;97976.22;6171083;23;20058;-95
2023/11/04 01:14:52;;;;;;;12.55;4.20;;;;;;;18.62;67.90;97968.13;6173045;23;20011;-96
2023/11/04 01:17:18;;;;;;;9.70;4.40;;;;;;;18.72;68.28;97997.56;6172459;23;20065;-96
2023/11/04 01:19:45;;;;;;;8.60;4.43;;;;;;;18.61;67.93;97958.38;6197117;23;20000;-95
2023/11/04 01:22:10;;;;;;;14.77;5.10;;;;;;;18.70;67.80;97948.06;6170396;23;20008;-95
2023/11/04 01:24:45;;;;;;;13.10;4.63;;;;;;;18.68;68.06;97938.66;6195789;23;20005;-94
2023/11/04 01:27:22;;;;;;;21.45;5.03;;;;;;;18.72;68.17;97937.59;6197374;23;20003;-93
2023/11/04 01:29:49;;;;;;;12.48;4.45;;;;;;;18.86;68.15;97953.47;6198689;23;20431;-95
2023/11/04 01:32:15;;;;;;;15.27;5.32;;;;;;;18.80;67.95;97929.56;6171702;23;20011;-95
2023/11/04 01:34:41;;;;;;;14.88;4.35;;;;;;;18.80;67.29;97918.66;6171110;23;20427;-95
2023/11/04 01:37:09;;;;;;;12.30;4.03;;;;;;;18.88;67.28;97928.56;6171718;23;20004;-96
2023/11/04 01:39:43;;;;;;;11.63;3.88;;;;;;;18.76;68.43;97894.81;6173551;23;20000;-95
2023/11/04 01:42:16;;;;;;;8.77;4.35;;;;;;;18.73;68.37;97873.72;6223103;23;20004;-95
2023/11/04 01:44:43;;;;;;;12.20;4.00;;;;;;;18.70;68.72;97865.47;6221338;23;20332;-95
2023/11/04 01:47:19;;;;;;;;;;;;;;;;;;;;;
2023/11/04 01:49:45;;;;;;;10.02;4.40;;;;;;;18.58;68.37;97853.56;6201628;23;20075;-95
2023/11/04 01:52:11;;;;;;;9.35;5.03;;;;;;;18.64;68.72;97826.03;6171506;23;20007;-95
2023/11/04 01:54:37;;;;;;;11.70;4.53;;;;;;;18.58;68.61;97825.50;6195933;23;19997;-96
2023/11/04 01:57:03;;;;;;;16.10;6.20;;;;;;;18.62;68.79;97834.56;6169869;23;20008;-95
2023/11/04 01:59:31;;;;;;;10.57;4.90;;;;;;;18.73;68.43;97864.75;6171980;23;20004;-95
2023/11/04 02:02:03;;;;;;;13.48;5.43;;;;;;;18.58;68.14;97842.66;6196749;23;20055;-95
2023/11/04 02:04:29;;;;;;;10.57;5.32;;;;;;;18.63;67.21;97846.25;6198361;23;20009;-95
2023/11/04 02:06:57;;;;;;;11.00;4.60;;;;;;;18.74;66.36;97858.94;6197061;23;20047;-94
2023/11/04 02:09:25;;;;;;;13.95;4.50;;;;;;;18.75;65.25;97863.22;6171570;23;20004;-95
2023/11/04 02:11:53;;;;;;;9.82;4.53;;;;;;;18.69;64.71;97839.34;6196576;23;20032;-96
2023/11/04 02:14:25;;;;;;;11.95;4.35;;;;;;;18.71;64.87;97839.78;6172456;23;20008;-96
2023/11/04 02:16:52;;;;;;;9.20;3.90;;;;;;;18.63;64.61;97827.16;6220475;23;20004;-96
2023/11/04 02:19:18;;;;;;;8.35;4.03;;;;;;;18.76;63.73;97832.09;6171083;23;20030;-95
2023/11/04 02:21:49;;;;;;;8.60;3.70;;;;;;;18.74;63.86;97839.84;6197370;23;20460;-95
2023/11/04 02:24:15;;;;;;;5.25;3.53;;;;;;;18.90;63.56;97869.00;6174398;23;20024;-95
2023/11/04 02:26:46;;;;;;;7.65;3.40;;;;;;;18.78;63.80;97846.19;6222665;23;20023;-96
2023/11/04 02:29:14;;;;;;;8.50;3.58;;;;;;;18.81;63.95;97830.25;6174301;23;20027;-96
2023/11/04 02:31:41;;;;;;;5.85;3.72;;;;;;;18.74;64.31;97814.53;6175443;23;20004;-96
2023/11/04 02:34:09;;;;;;;5.78;3.60;;;;;;;18.82;64.73;97815.47;6198711;23;20019;-95
2023/11/04 02:36:40;;;;;;;6.70;3.35;;;;;;;18.76;64.94;97810.28;6198969;23;20335;-94
2023/11/04 02:39:09;;;;;;;8.90;2.85;;;;;;;18.60;62.84;97785.06;6198028;23;20078;-96
2023/11/04 02:41:35;;;;;;;5.07;2.75;;;;;;;18.71;64.15;97812.50;6173861;23;20007;-96
2023/11/04 02:44:01;;;;;;;3.78;2.00;;;;;;;18.54;61.79;97778.31;6172384;23;20039;-94
2023/11/04 02:46:27;;;;;;;6.80;2.78;;;;;;;18.58;61.54;97787.34;6173550;23;20008;-96
2023/11/04 02:48:55;;;;;;;4.05;2.00;;;;;;;18.58;62.57;97804.50;6197952;23;20000;-96
2023/11/04 02:51:22;;;;;;;4.53;1.85;;;;;;;18.53;62.09;97814.88;6198034;23;20057;-95
2023/11/04 02:53:48;;;;;;;4.25;1.40;;;;;;;18.49;61.76;97814.03;6173080;23;19992;-96
2023/11/04 02:56:16;;;;;;;3.35;1.85;;;;;;;18.39;60.34;97804.50;6198268;23;20049;-96
2023/11/04 02:58:45;;;;;;;1.70;1.15;;;;;;;18.41;60.22;97818.56;6173562;23;20023;-95
2023/11/04 03:01:11;;;;;;;1.90;1.05;;;;;;;18.33;59.80;97795.03;6173681;23;20008;-95
2023/11/04 03:03:37;;;;;;;4.35;1.00;;;;;;;18.35;59.72;97806.38;6174147;23;20008;-95
2023/11/04 03:06:04;;;;;;;2.15;0.98;;;;;;;18.38;59.60;97816.53;6197466;23;20039;-95
2023/11/04 03:08:30;;;;;;;1.77;1.00;;;;;;;18.36;59.23;97810.66;6198498;23;20000;-95
2023/11/04 03:10:56;;;;;;;4.88;1.00;;;;;;;18.27;59.54;97791.81;6173402;23;20082;-95
2023/11/04 03:13:21;;;;;;;2.28;0.73;;;;;;;18.29;59.02;97802.34;6171762;23;20008;-94
2023/11/04 03:15:50;;;;;;;2.25;0.77;;;;;;;18.42;59.57;97824.78;6173884;23;20026;-95
2023/11/04 03:18:16;;;;;;;1.17;0.70;;;;;;;18.37;59.36;97823.94;6173891;23;20083;-95
2023/11/04 03:20:46;;;;;;;1.13;0.70;;;;;;;18.24;59.34;97797.16;6173281;23;20015;-95
2023/11/04 03:23:13;;;;;;;3.97;0.68;;;;;;;18.36;58.46;97821.56;6173836;23;20445;-96
2023/11/04 03:25:47;;;;;;;1.80;0.85;;;;;;;18.28;58.31;97798.84;6222715;23;20023;-96
2023/11/04 03:28:15;;;;;;;1.40;0.63;;;;;;;18.33;58.96;97804.00;6176434;23;20011;-96
2023/11/04 03:30:41;;;;;;;2.50;0.70;;;;;;;18.25;57.87;97764.13;6197599;23;20004;-96
2023/11/04 03:33:09;;;;;;;1.45;0.70;;;;;;;18.27;58.53;97767.28;6223248;23;20393;-95
2023/11/04 03:35:43;;;;;;;4.82;0.60;;;;;;;18.34;58.15;97778.34;6173151;23;20428;-95
2023/11/04 03:38:09;;;;;;;1.50;0.73;;;;;;;18.20;57.84;97742.63;6223114;23;20027;-96
2023/11/04 03:40:35;;;;;;;1.40;0.65;;;;;;;18.36;56.85;97762.41;6172272;23;20066;-96
2023/11/04 03:43:01;;;;;;;3.40;0.70;;;;;;;18.40;56.58;97767.13;6173183;23;20004;-95
2023/11/04 03:45:28;;;;;;;4.88;0.80;;;;;;;18.47;56.09;97772.72;6197756;23;20004;-96
2023/11/04 03:47:54;;;;;;;3.83;0.90;;;;;;;18.58;55.40;97784.63;6173643;23;20000;-93
2023/11/04 03:50:24;;;;;;;5.30;0.70;;;;;;;18.57;55.83;97770.22;6197931;23;20027;-95
2023/11/04 03:52:50;;;;;;;2.65;0.70;;;;;;;18.58;55.55;97776.44;6197907;23;20004;-96
2023/11/04 03:55:17;;;;;;;2.10;0.60;;;;;;;18.78;54.62;97802.56;6223620;23;20000;-96
2023/11/04 03:57:55;;;;;;;;;;;;;;;;;;;;;
2023/11/04 04:00:22;;;;;;;2.45;0.75;;;;;;;18.77;54.40;97792.75;6181414;23;20082;-95
2023/11/04 04:02:55;;;;;;;1.85;0.60;;;;;;;18.85;54.84;97812.81;6173683;23;20007;-96
2023/11/04 04:05:21;;;;;;;2.38;0.70;;;;;;;18.72;55.98;97789.56;6174611;23;20075;-95
2023/11/04 04:07:56;;;;;;;3.10;0.60;;;;;;;18.69;56.73;97771.97;6171476;23;20351;-96
2023/11/04 04:10:22;;;;;;;1.45;0.68;;;;;;;18.72;57.24;97779.44;6223062;23;20007;-96
2023/11/04 04:12:51;;;;;;;1.77;0.40;;;;;;;18.75;57.42;97780.66;6197723;23;20336;-95
2023/11/04 04:15:26;;;;;;;2.28;0.70;;;;;;;18.68;57.40;97773.13;6198174;23;20004;-95
2023/11/04 04:17:52;;;;;;;3.13;0.70;;;;;;;18.65;56.62;97764.88;6221752;23;20004;-95
2023/11/04 04:20:22;;;;;;;4.22;0.75;;;;;;;18.62;56.24;97765.63;6198064;23;20458;-96
2023/11/04 04:22:51;;;;;;;1.10;0.60;;;;;;;18.76;55.78;97806.78;6197537;23;20423;-95
2023/11/04 04:25:18;;;;;;;2.38;0.68;;;;;;;18.72;55.75;97800.47;6192282;23;20329;-95
2023/11/04 04:27:44;;;;;;;0.98;0.50;;;;;;;18.71;55.94;97804.34;6168463;23;20004;-96
2023/11/04 04:30:14;;;;;;;2.55;0.80;;;;;;;18.63;55.62;97778.09;6218481;23;20020;-96
2023/11/04 04:32:40;;;;;;;5.38;1.70;;;;;;;18.64;55.82;97776.94;6192992;23;20012;-95
2023/11/04 04:35:07;;;;;;;4.72;1.80;;;;;;;18.74;55.41;97803.63;6168523;23;19997;-95
2023/11/04 04:37:34;;;;;;;4.57;1.58;;;;;;;18.72;55.35;97797.75;6192482;23;20004;-96
2023/11/04 04:40:04;;;;;;;2.58;1.38;;;;;;;18.74;55.63;97798.19;6168316;23;20004;-96
2023/11/04 04:42:31;;;;;;;8.30;1.50;;;;;;;18.69;56.87;97791.06;6193424;23;20008;-94
2023/11/04 04:45:07;;;;;;;;;;;;;;;;;;;;;
2023/11/04 04:47:36;;;;;;;4.82;1.30;;;;;;;18.70;57.79;97795.38;6195569;23;20057;-96
2023/11/04 04:50:05;;;;;;;11.13;1.50;;;;;;;18.66;58.05;97789.06;6193175;23;20004;-95
2023/11/04 04:52:34;;;;;;;2.92;1.55;;;;;;;18.68;58.39;97803.13;6169116;23;20011;-96
2023/11/04 04:54:59;;;;;;;1.65;0.93;;;;;;;18.70;57.70;97822.63;6168451;23;20008;-96
2023/11/04 04:57:25;;;;;;;4.07;1.33;;;;;;;18.56;57.67;97812.25;6166949;23;19996;-96
2023/11/04 04:59:51;;;;;;;2.50;0.80;;;;;;;18.73;57.27;97842.94;6167482;23;20012;-94
2023/11/04 05:02:19;;;;;;;2.38;0.63;;;;;;;18.64;57.23;97843.16;6167136;23;20412;-94
2023/11/04 05:04:48;;;;;;;3.75;0.80;;;;;;;18.72;57.53;97850.34;6191213;23;20447;-93
2023/11/04 05:07:25;;;;;;;;;;;;;;;;;;;;;
2023/11/04 05:10:02;;;;;;;2.42;0.80;;;;;;;18.61;58.83;97815.81;6195207;23;20079;-96
2023/11/04 05:12:40;;;;;;;;;;;;;;;;;;;;;
2023/11/04 05:15:13;;;;;;;3.85;1.35;;;;;;;18.64;57.84;97807.72;6175270;23;20080;-95
2023/11/04 05:18:13;;;;;;;4.78;0.93;;;;;;;18.59;58.56;97786.19;6177604;23;20375;-96
2023/11/04 05:20:56;;;;;;;4.05;2.90;;;;;;;18.51;59.01;97757.22;6225324;23;20054;-96
2023/11/04 05:23:35;;;;;;;6.82;1.67;;;;;;;18.54;60.00;97764.69;6206140;23;19984;-95
2023/11/04 05:26:05;;;;;;;3.78;1.33;;;;;;;18.57;60.73;97763.94;6206449;23;20016;-96
2023/11/04 05:28:39;;;;;;;5.18;1.40;;;;;;;18.45;60.27;97743.13;6201233;23;20004;-95
2023/11/04 05:31:36;;;;;;;5.78;1.40;;;;;;;18.56;60.54;97768.63;6205847;23;20171;-96
2023/11/04 05:34:14;;;;;;;4.28;1.15;;;;;;;18.48;60.89;97785.22;6217599;23;20058;-95
2023/11/04 05:37:31;;;;;;;2.97;1.60;;;;;;;18.38;60.40;97800.19;6168320;23;20020;-95
2023/11/04 05:40:24;;;;;;;4.83;1.53;;;;;;;18.35;59.17;97826.22;6148286;23;20008;-96
2023/11/04 05:43:27;;;;;;;;;;;;;;;;;;;;;
2023/11/04 05:49:31;;;;;;;1.80;1.10;;;;;;;18.34;58.26;97851.91;6041942;23;20064;-93
2023/11/04 05:52:12;;;;;;;3.33;1.42;;;;;;;18.58;58.26;97871.84;6061860;23;20021;-96
2023/11/04 05:55:06;;;;;;;4.03;1.10;;;;;;;18.48;58.59;97842.44;6062163;23;19987;-96
2023/11/04 05:57:50;;;;;;;;;;;;;;;;;;;;;
2023/11/04 06:00:32;;;;;;;4.65;1.45;;;;;;;18.45;57.68;97824.88;6107316;23;20013;-96
2023/11/04 06:03:17;;;;;;;3.80;1.30;;;;;;;18.47;57.46;97799.97;6037568;23;20003;-96
2023/11/04 06:05:51;;;;;;;4.97;1.50;;;;;;;18.55;58.10;97747.97;6103046;23;20011;-96
2023/11/04 06:08:19;;;;;;;5.15;1.10;;;;;;;18.59;57.69;97723.50;6106867;23;20009;-96
2023/11/04 06:10:45;;;;;;;6.35;1.08;;;;;;;18.44;57.52;97689.75;6138772;23;20136;-96
2023/11/04 06:13:20;;;;;;;1.92;0.80;;;;;;;18.54;56.98;97693.81;6109515;23;20013;-96
2023/11/04 06:15:49;;;;;;;3.85;1.38;;;;;;;18.64;57.19;97725.16;6122545;23;20004;-95
2023/11/04 06:18:26;;;;;;;4.15;1.15;;;;;;;18.67;56.82;97711.56;6178630;23;20024;-95
2023/11/04 06:20:54;;;;;;;4.38;1.35;;;;;;;18.71;57.84;97728.78;6197348;23;19996;-95
2023/11/04 06:23:25;;;;;;;2.95;1.33;;;;;;;18.51;57.47;97695.34;6173229;23;19996;-96
2023/11/04 06:26:00;;;;;;;4.57;1.10;;;;;;;18.54;57.47;97702.00;6172809;23;20054;-96
2023/11/04 06:28:46;;;;;;;;;;;;;;;;;;;;;
2023/11/04 06:31:12;;;;;;;5.50;0.90;;;;;;;18.59;56.78;97728.94;6204057;23;20075;-94
2023/11/04 06:33:38;;;;;;;4.53;1.00;;;;;;;18.72;56.88;97784.91;6173345;23;20439;-95
2023/11/04 06:36:09;;;;;;;5.90;1.35;;;;;;;18.71;56.03;97804.34;6198174;23;20034;-95
2023/11/04 06:38:44;;;;;;;;;;;;;;;;;;;;;
2023/11/04 06:41:19;;;;;;;20.55;15.20;;;;;;;18.73;57.09;97774.78;6204067;23;20372;-94
2023/11/04 06:43:48;;;;;;;19.75;11.38;;;;;;;18.65;57.05;97757.47;6200481;23;20000;-96
2023/11/04 06:46:27;;;;;;;13.65;7.63;;;;;;;18.82;57.18;97780.78;6175226;23;20091;-94
2023/11/04 06:49:20;;;;;;;;;;;;;;;;;;;;;
2023/11/04 06:52:29;;;;;;;7.30;1.85;;;;;;;18.87;57.64;97766.88;6213963;23;20027;-94
2023/11/04 06:55:41;;;;;;;;;;;;;;;;;;;;;
2023/11/04 06:58:36;;;;;;;5.47;1.08;;;;;;;18.74;57.23;97777.16;6056584;23;20021;-95
2023/11/04 07:01:12;;;;;;;;;;;;;;;;;;;;;
2023/11/04 07:03:47;;;;;;;4.30;1.02;;;;;;;18.76;57.23;97753.03;6013321;23;20031;-96
2023/11/04 07:06:18;;;;;;;4.78;1.13;;;;;;;18.75;57.37;97747.94;6018178;23;20074;-96
2023/11/04 07:08:54;;;;;;;;;;;;;;;;;;;;;
2023/11/04 07:16:29;;;;;;;6.43;1.08;;;;;;;19.00;56.98;97750.34;6195033;22;20032;-96
2023/11/04 07:19:14;;;;;;;3.47;1.40;;;;;;;18.96;58.18;97745.59;6138651;23;20012;-95
2023/11/04 07:21:41;;;;;;;5.38;1.60;;;;;;;19.02;58.12;97757.00;6139698;23;20012;-96
2023/11/04 07:24:14;;;;;;;2.67;1.00;;;;;;;18.97;58.72;97755.38;6140695;23;20009;-95
2023/11/04 07:26:41;;;;;;;3.65;0.95;;;;;;;19.02;58.78;97753.47;6142501;23;20004;-96
2023/11/04 07:29:11;;;;;;;4.65;1.80;;;;;;;19.06;57.72;97763.28;6140575;23;20001;-96
2023/11/04 07:31:48;;;;;;;2.63;1.20;;;;;;;19.12;57.67;97770.03;6142923;23;19993;-95
2023/11/04 07:34:13;;;;;;;10.90;1.70;;;;;;;19.15;58.01;97793.06;6147062;23;20032;-96
2023/11/04 07:36:49;;;;;;;;;;;;;;;;;;;;;
2023/11/04 07:39:29;;;;;;;;;;;;;;;;;;;;;
2023/11/04 07:41:55;;;;;;;3.35;1.13;;;;;;;18.98;57.80;97807.97;6169525;23;20047;-95
2023/11/04 07:47:28;;;;;;;7.40;2.25;;;;;;;18.97;57.60;97800.94;6186727;23;20029;-95
2023/11/04 07:50:05;;;;;;;5.82;2.45;;;;;;;18.99;58.46;97809.56;6140286;23;20339;-96
2023/11/04 07:52:36;;;;;;;8.70;2.40;;;;;;;18.94;58.82;97791.53;6167957;23;20088;-96
2023/11/04 07:56:10;;;;;;;7.80;3.47;;;;;;;18.91;58.92;97807.84;6145867;23;20001;-96
2023/11/04 08:04:12;;;;;;;;;;;;;;;;;;;;;
2023/11/04 08:06:58;;;;;;;4.43;1.40;;;;;;;18.35;64.73;97806.38;6211020;23;20000;-95
2023/11/04 08:09:34;;;;;;;3.08;1.45;;;;;;;18.15;65.85;97800.09;6180758;23;20390;-96
2023/11/04 08:11:59;;;;;;;5.93;1.50;;;;;;;18.03;66.43;97803.75;6180347;23;20427;-96
2023/11/04 08:14:27;;;;;;;3.90;1.10;;;;;;;17.77;67.43;97793.44;6178875;23;20023;-95
2023/11/04 08:16:55;;;;;;;3.60;1.30;;;;;;;17.49;68.76;97807.97;6180224;23;20000;-95
2023/11/04 08:44:26;;;;;;;5.03;1.50;;;;;;;16.98;74.36;97668.44;6119405;23;20017;-96
2023/11/04 08:46:56;;;;;;;5.65;2.50;;;;;;;17.11;76.47;97670.66;6176273;23;20001;-96
2023/11/04 08:49:42;;;;;;;;;;;;;;;;;;;;;
2023/11/04 08:52:30;;;;;;;;;;;;;;;;;;;;;
2023/11/04 08:55:06;;;;;;;;;;;;;;;;;;;;;
2023/11/04 08:57:34;;;;;;;9.82;2.70;;;;;;;17.34;79.39;97708.09;6148270;23;20027;-95
2023/11/04 09:00:10;;;;;;;;;;;;;;;;;;;;;
2023/11/04 09:02:43;;;;;;;10.05;2.53;;;;;;;17.56;79.47;97712.09;6146341;23;20043;-95
2023/11/04 09:05:18;;;;;;;6.40;2.05;;;;;;;17.29;80.76;97709.16;6144782;23;20007;-95
2023/11/04 09:07:50;;;;;;;12.02;2.85;;;;;;;17.48;79.94;97723.97;6125186;23;20001;-96
2023/11/04 09:10:39;;;;;;;8.07;3.55;;;;;;;17.41;79.70;97699.31;6146840;23;19993;-96
2023/11/04 09:13:13;;;;;;;11.48;5.80;;;;;;;17.58;78.21;97709.81;6152389;23;20005;-96
2023/11/04 09:15:40;;;;;;;15.10;5.80;;;;;;;17.64;78.25;97697.50;6144086;23;20371;-95
2023/11/04 09:18:16;;;;;;;12.40;6.78;;;;;;;17.47;79.03;97679.66;6117629;23;20001;-96
2023/11/04 09:21:06;;;;;;;12.65;5.95;;;;;;;17.52;77.74;97681.28;6166458;23;20036;-95
2023/11/04 09:26:59;;;;;;;18.77;8.13;;;;;;;17.29;78.17;97654.75;6123335;23;19993;-96
2023/11/04 09:29:25;;;;;;;11.13;6.05;;;;;;;17.41;77.27;97659.31;6075871;23;20533;-96
2023/11/04 09:31:59;;;;;;;13.07;8.32;;;;;;;17.48;76.90;97661.38;6028265;23;20014;-96
2023/11/04 09:34:35;;;;;;;5.70;3.30;;;;;;;17.42;73.88;97633.66;6025682;23;20103;-96
2023/11/04 09:37:15;;;;;;;7.60;3.30;;;;;;;17.31;74.48;97619.81;6054660;23;20122;-95
2023/11/04 09:39:43;;;;;;;8.98;3.45;;;;;;;17.19;74.24;97589.25;6029392;23;20006;-93
2023/11/04 09:42:11;;;;;;;5.70;2.70;;;;;;;17.24;75.34;97614.22;6050456;23;20023;-95
2023/11/04 09:44:42;;;;;;;7.97;3.10;;;;;;;17.21;76.01;97614.94;6075449;23;20034;-94
2023/11/04 09:47:10;;;;;;;8.90;2.95;;;;;;;17.11;76.34;97588.31;6074997;23;20010;-94
2023/11/04 09:49:39;;;;;;;7.57;2.92;;;;;;;17.19;76.08;97600.13;6078328;23;20017;-96
2023/11/04 09:52:11;;;;;;;7.95;2.50;;;;;;;17.00;76.92;97574.47;6077573;23;20013;-94
2023/11/04 09:54:36;;;;;;;10.57;2.67;;;;;;;17.02;76.12;97580.34;6078329;23;20085;-95
2023/11/04 09:57:02;;;;;;;6.25;2.75;;;;;;;17.12;76.29;97593.41;6079938;23;20018;-93
2023/11/04 09:59:35;;;;;;;7.50;2.80;;;;;;;17.11;77.15;97610.84;6101381;23;20087;-95
2023/11/04 10:02:24;;;;;;;4.75;2.88;;;;;;;17.02;76.83;97651.03;6076499;23;20002;-96
2023/11/04 10:05:03;;;;;;;6.90;2.60;;;;;;;16.89;76.12;97652.28;6079524;23;20034;-93
2023/11/04 10:07:31;;;;;;;7.43;3.08;;;;;;;16.79;76.83;97729.69;6098393;23;20025;-95
2023/11/04 10:10:54;;;;;;;20.35;4.63;;;;;;;16.54;77.33;97848.59;6076955;23;20038;-95
2023/11/04 10:13:23;;;;;;;10.15;3.65;;;;;;;16.21;79.02;97843.34;6103067;23;20042;-96
2023/11/04 10:16:00;;;;;;;14.85;4.20;;;;;;;16.03;80.58;97796.69;6082693;23;20362;-95
2023/11/04 10:18:27;;;;;;;18.85;5.57;;;;;;;15.64;81.69;97772.63;6031713;23;20003;-93
2023/11/04 10:21:09;;;;;;;10.07;4.00;;;;;;;15.63;82.24;97771.06;6033007;23;20009;-95
2023/11/04 10:23:36;;;;;;;;;;;;;;;15.82;81.61;97802.28;6094074;23;20009;-96
2023/11/04 10:26:28;;;;;;;;;;;;;;;;;;;;;
2023/11/04 10:36:08;;;;;;;8.27;2.78;;;;;;;15.42;83.94;97745.97;6201498;22;20028;-93
2023/11/04 10:39:51;;;;;;;;;;;;;;;;;;;;;
2023/11/04 11:20:51;;;;;;;4.65;2.13;;;;;;;15.12;82.75;97267.19;6262073;22;20020;-96
2023/11/04 11:30:25;;;;;;;;;;;;;;;;;;;;;
2023/11/04 12:22:11;;;;;;;8.18;3.20;;;;;;;15.26;80.55;97491.00;6200885;22;20063;-96
2023/11/04 12:24:39;;;;;;;6.38;2.95;;;;;;;15.10;81.17;97486.31;6169653;23;20012;-96
2023/11/04 12:27:06;;;;;;;5.78;3.35;;;;;;;15.28;83.34;97515.84;6191546;23;19996;-95
2023/11/04 12:29:34;;;;;;;5.05;3.28;;;;;;;15.36;82.47;97542.03;6191831;23;20091;-95
2023/11/04 12:32:15;;;;;;;5.68;3.08;;;;;;;15.18;82.96;97519.06;6166012;23;20427;-95
2023/11/04 12:35:04;;;;;;;7.05;2.80;;;;;;;15.23;81.17;97530.47;6146097;23;20011;-96
2023/11/04 12:37:30;;;;;;;6.10;3.00;;;;;;;15.31;81.24;97540.34;6172413;23;20428;-95
2023/11/04 12:39:58;;;;;;;7.82;2.90;;;;;;;15.21;83.03;97542.75;6191963;23;20031;-94
2023/11/04 12:42:41;;;;;;;;;;;;;;;;;;;;;
2023/11/04 12:45:23;;;;;;;;;;;;;;;;;;;;;
2023/11/04 12:48:11;;;;;;;4.70;1.60;;;;;;;15.44;78.84;97562.81;6218053;23;20482;-94
2023/11/04 12:50:57;;;;;;;3.95;1.70;;;;;;;15.30;79.27;97551.56;6181184;23;20001;-95
2023/11/04 12:53:23;;;;;;;4.68;1.60;;;;;;;15.32;80.03;97546.56;6175001;23;20395;-94
2023/11/04 12:55:58;;;;;;;2.78;1.83;;;;;;;15.41;80.50;97546.44;6191043;23;20004;-94
2023/11/04 12:58:24;;;;;;;3.70;1.48;;;;;;;15.48;79.78;97565.59;6169749;23;20082;-94
2023/11/04 13:00:59;;;;;;;3.78;1.77;;;;;;;15.61;80.60;97588.84;6191047;23;20000;-93
2023/11/04 13:03:29;;;;;;;3.88;1.70;;;;;;;15.46;78.46;97567.84;6169764;23;19997;-94
2023/11/04 13:05:55;;;;;;;2.58;1.42;;;;;;;15.52;78.10;97596.31;6167307;23;20016;-94
2023/11/04 13:08:23;;;;;;;2.78;1.70;;;;;;;15.25;79.91;97563.44;6167171;23;20442;-95
2023/11/04 13:10:49;;;;;;;3.35;2.20;;;;;;;15.20;81.36;97595.41;6168498;23;20000;-95
2023/11/04 13:13:22;;;;;;;7.85;5.68;;;;;;;15.28;82.55;97602.63;6165795;23;20394;-94
2023/11/04 13:15:48;;;;;;;2.85;1.50;;;;;;;15.18;80.89;97601.16;6192718;23;20012;-94
2023/11/04 13:18:18;;;;;;;2.00;1.10;;;;;;;15.22;79.19;97606.72;6167437;23;20000;-95
2023/11/04 13:20:44;;;;;;;4.03;1.45;;;;;;;15.15;80.63;97585.59;6166985;23;20000;-94
2023/11/04 13:26:14;;;;;;;;;;;;;;;;;;;;;
2023/11/04 13:28:50;;;;;;;4.00;1.10;;;;;;;15.20;79.54;97569.09;6194168;23;20024;-94
2023/11/04 13:31:24;;;;;;;2.63;1.30;;;;;;;15.24;80.54;97545.56;6216523;23;20423;-95
2023/11/04 13:33:59;;;;;;;24.67;15.07;;;;;;;15.25;81.35;97525.47;6190608;23;20001;-93
2023/11/04 13:36:53;;;;;;;;;;;;;;;;;;;;;
2023/11/04 13:39:31;;;;;;;;;;;;;;;;;;;;;
2023/11/04 13:41:59;;;;;;;3.83;1.80;;;;;;;15.40;80.18;97515.81;6194315;23;20076;-96
2023/11/04 13:44:44;;;;;;;3.97;1.80;;;;;;;15.49;80.07;97524.56;6166709;23;20008;-95
2023/11/04 13:47:13;;;;;;;5.97;2.13;;;;;;;15.59;79.86;97536.06;6193816;23;20084;-96
2023/11/04 13:49:40;;;;;;;4.90;2.40;;;;;;;15.59;80.10;97528.72;6142956;23;20024;-96
2023/11/04 13:52:16;;;;;;;;;;;;;;;;;;;;;
2023/11/04 13:54:44;;;;;;;4.25;1.90;;;;;;;15.75;78.13;97532.28;6165093;23;20076;-96
2023/11/04 13:57:17;;;;;;;5.28;3.53;;;;;;;15.93;78.60;97551.72;6166387;23;20519;-96
2023/11/04 13:59:45;;;;;;;3.20;2.40;;;;;;;15.78;78.93;97532.72;6143774;23;20005;-95
2023/11/04 14:02:29;;;;;;;;;;;;;;;;;;;;;
2023/11/04 14:04:56;;;;;;;7.03;2.20;;;;;;;15.86;78.10;97527.13;6170993;23;20084;-95
2023/11/04 14:07:23;;;;;;;2.47;1.67;;;;;;;15.87;78.09;97528.69;6165468;23;20009;-96
2023/11/04 14:09:52;;;;;;;5.63;1.70;;;;;;;16.01;77.78;97489.47;6164665;23;20004;-94
2023/11/04 14:12:31;;;;;;;2.40;1.38;;;;;;;15.95;76.68;97478.88;6141994;23;20000;-95
2023/11/04 14:15:02;;;;;;;4.75;2.67;;;;;;;15.92;76.44;97486.94;6169713;23;19996;-95
2023/11/04 14:17:45;;;;;;;;;;;;;;;;;;;;;
2023/11/04 14:20:24;;;;;;;1.73;1.10;;;;;;;16.05;75.90;97514.78;6169511;23;20060;-94
2023/11/04 14:23:10;;;;;;;;;;;;;;;;;;;;;
2023/11/04 14:25:36;;;;;;;4.80;1.20;;;;;;;16.10;74.94;97492.78;6139219;23;20079;-92
2023/11/04 14:28:02;;;;;;;1.58;0.90;;;;;;;16.10;74.73;97504.47;6214504;23;20423;-95
2023/11/04 14:30:29;;;;;;;2.30;1.27;;;;;;;16.10;74.11;97523.47;6165472;23;20056;-95
2023/11/04 14:33:02;;;;;;;1.80;1.40;;;;;;;16.15;74.86;97558.50;6190040;23;20011;-96
2023/11/04 14:35:30;;;;;;;2.65;1.40;;;;;;;16.04;75.45;97570.22;6167318;23;20000;-93
2023/11/04 14:37:58;;;;;;;1.92;1.35;;;;;;;16.07;75.23;97591.25;6166573;23;19997;-96
2023/11/04 14:40:27;;;;;;;3.33;1.40;;;;;;;15.97;75.53;97595.25;6215699;23;20001;-96
2023/11/04 14:43:05;;;;;;;;;;;;;;;;;;;;;
2023/11/04 14:45:34;;;;;;;4.20;1.80;;;;;;;15.95;75.81;97616.53;6190897;23;20075;-95
2023/11/04 14:48:04;;;;;;;2.08;1.20;;;;;;;15.78;74.71;97601.34;6215019;23;20010;-95
2023/11/04 14:50:43;;;;;;;5.68;1.42;;;;;;;15.73;74.50;97615.97;6190526;23;20059;-93
2023/11/04 14:53:23;;;;;;;;;;;;;;;;;;;;;
2023/11/04 14:55:53;;;;;;;5.00;3.33;;;;;;;15.89;75.39;97645.84;6196147;23;20398;-95
2023/11/04 14:58:23;;;;;;;8.90;4.80;;;;;;;15.85;76.16;97642.25;6167059;23;20148;-95
2023/11/04 15:03:40;;;;;;;5.95;4.18;;;;;;;15.63;77.81;97611.00;6196113;23;20020;-95
2023/11/04 15:06:08;;;;;;;3.95;2.83;;;;;;;15.67;77.96;97603.75;6167438;23;20068;-95
2023/11/04 15:08:35;;;;;;;4.50;2.80;;;;;;;15.51;77.51;97592.03;6191075;23;20431;-96
2023/11/04 15:11:03;;;;;;;6.57;2.83;;;;;;;15.57;78.00;97591.44;6188903;23;20001;-94
2023/11/04 15:13:47;;;;;;;;;;;;;;;;;;;;;
2023/11/04 15:19:26;;;;;;;4.20;1.85;;;;;;;15.50;77.75;97575.00;6238625;23;20000;-96
2023/11/04 15:22:07;;;;;;;4.95;1.70;;;;;;;15.36;76.42;97567.22;6240833;23;20791;-95